createdAt,value
2022-12-05T00:01:53.847Z,24.80
2022-12-05T00:04:23.047Z,25.50
2022-12-05T00:06:50.496Z,24.57
2022-12-05T00:09:20.546Z,26.47
2022-12-05T00:11:48.705Z,26.03
2022-12-05T00:14:17.174Z,27.60
2022-12-05T00:16:45.729Z,26.57
2022-12-05T00:19:15.343Z,26.50
2022-12-05T00:21:44.105Z,25.77
2022-12-05T00:24:15.455Z,26.23
2022-12-05T00:26:44.093Z,25.53
2022-12-05T00:29:13.521Z,25.13
2022-12-05T00:31:43.253Z,25.37
2022-12-05T00:34:12.348Z,24.57
2022-12-05T00:36:40.506Z,26.00
2022-12-05T00:39:11.640Z,25.20
2022-12-05T00:41:39.095Z,24.63
2022-12-05T00:44:08.107Z,26.80
2022-12-05T00:46:39.543Z,26.57
2022-12-05T00:49:08.322Z,24.67
2022-12-05T00:51:42.391Z,26.13
2022-12-05T00:54:13.335Z,24.57
2022-12-05T00:56:41.093Z,24.87
2022-12-05T00:59:12.733Z,26.17
2022-12-05T01:01:42.210Z,24.53
2022-12-05T01:04:14.893Z,25.27
2022-12-05T01:06:43.174Z,25.70
2022-12-05T01:09:14.924Z,25.80
2022-12-05T01:11:45.253Z,25.67
2022-12-05T01:14:16.451Z,24.13
2022-12-05T01:16:46.763Z,24.17
2022-12-05T01:19:20.180Z,24.03
2022-12-05T01:21:51.027Z,23.87
2022-12-05T01:24:20.174Z,23.77
2022-12-05T01:26:50.558Z,22.77
2022-12-05T01:29:20.793Z,21.87
2022-12-05T01:31:48.429Z,21.33
2022-12-05T01:34:18.913Z,21.77
2022-12-05T01:36:49.256Z,21.80
2022-12-05T01:39:17.080Z,20.03
2022-12-05T01:41:47.786Z,19.27
2022-12-05T01:44:24.355Z,19.07
2022-12-05T01:46:53.259Z,17.80
2022-12-05T01:49:37.560Z,18.20
2022-12-05T01:52:27.183Z,16.70
2022-12-05T01:55:00.946Z,18.07
2022-12-05T01:57:28.739Z,17.23
2022-12-05T02:00:06.961Z,17.80
2022-12-05T02:02:42.610Z,17.60
2022-12-05T02:05:27.628Z,17.03
2022-12-05T02:07:55.614Z,16.87
2022-12-05T02:10:23.327Z,16.23
2022-12-05T02:12:51.675Z,15.87
2022-12-05T02:15:55.472Z,15.83
2022-12-05T02:18:45.775Z,15.20
2022-12-05T02:21:26.507Z,15.40
2022-12-05T02:24:26.642Z,17.17
2022-12-05T02:27:28.743Z,15.53
2022-12-05T02:30:20.281Z,16.43
2022-12-05T02:33:21.142Z,15.73
2022-12-05T02:36:11.601Z,16.90
2022-12-05T02:39:09.599Z,14.87
2022-12-05T02:41:48.554Z,15.00
2022-12-05T02:44:39.286Z,14.10
2022-12-05T02:47:09.583Z,14.80
2022-12-05T02:49:41.819Z,13.30
2022-12-05T02:52:14.307Z,14.03
2022-12-05T02:54:47.898Z,14.53
2022-12-05T02:57:17.478Z,13.97
2022-12-05T02:59:44.877Z,13.03
2022-12-05T03:02:31.906Z,14.47
2022-12-05T03:05:24.857Z,13.90
2022-12-05T03:07:57.459Z,13.10
2022-12-05T03:10:28.276Z,12.33
2022-12-05T03:13:00.697Z,12.33
2022-12-05T03:15:37.985Z,13.50
2022-12-05T03:18:29.140Z,12.93
2022-12-05T03:21:27.201Z,12.50
2022-12-05T03:24:09.310Z,11.83
2022-12-05T03:27:00.506Z,12.60
2022-12-05T03:29:45.975Z,13.77
2022-12-05T03:32:22.389Z,13.63
2022-12-05T03:35:10.818Z,12.20
2022-12-05T03:37:54.583Z,14.27
2022-12-05T03:40:36.439Z,12.70
2022-12-05T03:43:17.939Z,12.80
2022-12-05T03:45:56.318Z,13.20
2022-12-05T03:48:43.082Z,13.70
2022-12-05T03:51:14.475Z,12.47
2022-12-05T03:53:47.088Z,14.80
2022-12-05T03:56:37.161Z,14.43
2022-12-05T04:00:00.691Z,13.13
2022-12-05T04:02:57.201Z,13.17
2022-12-05T04:05:32.688Z,13.40
2022-12-05T04:08:17.937Z,12.40
2022-12-05T04:10:51.122Z,12.50
2022-12-05T04:13:27.369Z,13.90
2022-12-05T04:16:22.398Z,13.83
2022-12-05T04:18:58.506Z,14.50
2022-12-05T04:21:38.185Z,14.33
2022-12-05T04:24:38.989Z,13.83
2022-12-05T04:27:21.515Z,13.37
2022-12-05T04:30:21.668Z,13.17
2022-12-05T04:32:55.892Z,14.80
2022-12-05T04:35:29.724Z,14.90
2022-12-05T04:38:04.896Z,13.50
2022-12-05T04:40:41.817Z,14.00
2022-12-05T04:43:12.647Z,13.97
2022-12-05T04:45:41.576Z,12.70
2022-12-05T04:48:14.586Z,14.10
2022-12-05T04:50:45.299Z,15.10
2022-12-05T04:53:15.779Z,13.33
2022-12-05T04:55:48.534Z,13.63
2022-12-05T04:58:24.736Z,13.93
2022-12-05T05:01:43.076Z,14.27
2022-12-05T05:04:16.582Z,14.97
2022-12-05T05:06:45.237Z,14.67
2022-12-05T05:09:13.800Z,14.40
2022-12-05T05:11:42.260Z,15.27
2022-12-05T05:14:09.735Z,14.40
2022-12-05T05:16:41.665Z,14.87
2022-12-05T05:19:12.206Z,16.33
2022-12-05T05:21:43.278Z,14.97
2022-12-05T05:24:13.149Z,13.93
2022-12-05T05:26:45.529Z,15.10
2022-12-05T05:29:15.296Z,17.60
2022-12-05T05:31:43.541Z,15.33
2022-12-05T05:34:12.175Z,15.03
2022-12-05T05:36:39.606Z,15.07
2022-12-05T05:39:10.856Z,15.10
2022-12-05T05:41:40.675Z,14.73
2022-12-05T05:44:09.215Z,16.10
2022-12-05T05:46:38.880Z,16.20
2022-12-05T05:49:07.678Z,15.50
2022-12-05T05:51:35.620Z,16.70
2022-12-05T05:54:04.880Z,17.37
2022-12-05T05:56:32.308Z,14.47
2022-12-05T05:59:03.189Z,16.47
2022-12-05T06:01:31.024Z,17.37
2022-12-05T06:04:03.219Z,16.03
2022-12-05T06:06:31.587Z,16.87
2022-12-05T06:09:03.387Z,16.07
2022-12-05T06:11:32.148Z,14.77
2022-12-05T06:14:03.130Z,14.83
2022-12-05T06:16:33.428Z,16.33
2022-12-05T06:19:01.075Z,15.17
2022-12-05T06:21:30.692Z,15.00
2022-12-05T06:23:58.483Z,16.10
2022-12-05T06:26:27.287Z,15.63
2022-12-05T06:28:55.720Z,16.90
2022-12-05T06:31:28.565Z,16.17
2022-12-05T06:33:56.270Z,16.43
2022-12-05T06:36:24.427Z,17.27
2022-12-05T06:38:52.020Z,15.77
2022-12-05T06:41:20.784Z,15.70
2022-12-05T06:43:48.400Z,15.97
2022-12-05T06:46:19.601Z,15.73
2022-12-05T06:48:48.814Z,16.13
2022-12-05T06:51:17.259Z,15.03
2022-12-05T06:53:45.331Z,17.20
2022-12-05T06:56:15.779Z,16.50
2022-12-05T06:58:48.561Z,18.23
2022-12-05T07:01:37.608Z,18.10
2022-12-05T07:04:07.029Z,17.47
2022-12-05T07:06:35.478Z,19.37
2022-12-05T07:09:04.866Z,18.13
2022-12-05T07:11:32.272Z,17.93
2022-12-05T07:14:10.256Z,21.87
2022-12-05T07:16:42.551Z,17.17
2022-12-05T07:19:11.800Z,19.30
2022-12-05T07:21:44.017Z,19.23
2022-12-05T07:24:12.614Z,18.60
2022-12-05T07:26:39.944Z,19.77
2022-12-05T07:29:08.348Z,22.73
2022-12-05T07:31:37.043Z,22.43
2022-12-05T07:34:04.569Z,19.47
2022-12-05T07:36:33.670Z,20.40
2022-12-05T07:39:01.488Z,21.60
2022-12-05T07:41:33.729Z,22.30
2022-12-05T07:44:06.716Z,22.57
2022-12-05T07:46:38.271Z,20.77
2022-12-05T07:49:09.987Z,18.97
2022-12-05T07:51:39.987Z,20.97
2022-12-05T07:54:07.587Z,22.10
2022-12-05T07:56:37.476Z,20.70
2022-12-05T07:59:07.051Z,22.00
2022-12-05T08:01:34.497Z,23.30
2022-12-05T08:04:01.905Z,23.43
2022-12-05T08:06:31.203Z,23.70
2022-12-05T08:08:59.586Z,24.87
2022-12-05T08:11:30.361Z,24.97
2022-12-05T08:14:00.656Z,25.17
2022-12-05T08:16:30.609Z,25.23
2022-12-05T08:19:04.227Z,28.97
2022-12-05T08:21:32.141Z,24.00
2022-12-05T08:23:59.542Z,25.07
2022-12-05T08:26:31.560Z,24.83
2022-12-05T08:29:10.016Z,24.10
2022-12-05T08:31:47.191Z,24.17
2022-12-05T08:34:15.550Z,24.33
2022-12-05T08:36:44.277Z,24.03
2022-12-05T08:39:23.308Z,22.47
2022-12-05T08:41:51.683Z,22.20
2022-12-05T08:44:19.584Z,24.53
2022-12-05T08:46:51.155Z,25.20
2022-12-05T08:49:19.102Z,22.97
2022-12-05T08:51:46.703Z,27.47
2022-12-05T08:54:15.538Z,23.80
2022-12-05T08:56:42.973Z,26.33
2022-12-05T08:59:10.661Z,26.90
2022-12-05T09:01:39.301Z,24.37
2022-12-05T09:04:10.165Z,29.53
2022-12-05T09:06:40.021Z,26.37
2022-12-05T09:09:11.682Z,26.80
2022-12-05T09:11:46.334Z,29.47
2022-12-05T09:14:14.257Z,30.73
2022-12-05T09:16:44.234Z,27.67
2022-12-05T09:19:16.538Z,30.17
2022-12-05T09:21:45.055Z,24.37
2022-12-05T09:24:13.454Z,26.57
2022-12-05T09:26:41.858Z,26.77
2022-12-05T09:29:16.226Z,24.53
2022-12-05T09:31:46.285Z,24.23
2022-12-05T09:34:16.186Z,22.40
2022-12-05T09:36:43.918Z,23.87
2022-12-05T09:39:11.791Z,22.50
2022-12-05T09:42:00.898Z,24.60
2022-12-05T09:44:37.163Z,22.93
2022-12-05T09:47:29.640Z,23.97
2022-12-05T09:50:18.565Z,22.33
2022-12-05T09:53:23.980Z,23.87
2022-12-05T09:55:57.150Z,24.00
2022-12-05T09:58:50.361Z,25.23
2022-12-05T10:01:37.218Z,24.17
2022-12-05T10:04:24.318Z,23.83
2022-12-05T10:07:14.879Z,24.50
2022-12-05T10:09:50.993Z,24.77
2022-12-05T10:13:00.355Z,23.77
2022-12-05T10:15:32.935Z,23.77
2022-12-05T10:18:09.529Z,21.97
2022-12-05T10:20:51.909Z,22.87
2022-12-05T10:23:55.497Z,25.93
2022-12-05T10:26:15.561Z,24.23
2022-12-05T10:28:55.801Z,20.47
2022-12-05T10:31:30.253Z,24.47
2022-12-05T10:34:04.830Z,23.30
2022-12-05T10:36:37.428Z,24.73
2022-12-05T10:39:08.410Z,27.20
2022-12-05T10:41:38.810Z,36.27
2022-12-05T10:44:07.627Z,30.93
2022-12-05T10:46:35.804Z,27.83
2022-12-05T10:49:08.815Z,36.90
2022-12-05T10:51:37.827Z,39.30
2022-12-05T10:54:23.681Z,45.17
2022-12-05T10:56:55.647Z,36.33
2022-12-05T10:59:25.737Z,26.20
2022-12-05T11:01:59.832Z,22.27
2022-12-05T11:04:33.500Z,21.10
2022-12-05T11:07:09.391Z,25.93
2022-12-05T11:09:39.540Z,26.83
2022-12-05T11:12:19.479Z,23.67
2022-12-05T11:15:23.762Z,23.80
2022-12-05T11:17:56.480Z,24.77
2022-12-05T11:20:25.896Z,26.60
2022-12-05T11:22:56.557Z,24.50
2022-12-05T11:25:35.453Z,26.03
2022-12-05T11:28:23.915Z,23.40
2022-12-05T11:31:18.022Z,26.73
2022-12-05T11:34:13.647Z,24.87
2022-12-05T11:36:52.849Z,25.60
2022-12-05T11:39:20.320Z,23.40
2022-12-05T11:45:21.265Z,24.17
2022-12-05T11:48:22.086Z,25.50
2022-12-05T11:51:07.441Z,24.40
2022-12-05T11:53:49.204Z,24.80
2022-12-05T11:56:37.091Z,23.07
2022-12-05T11:59:16.782Z,24.87
2022-12-05T12:02:22.920Z,24.33
2022-12-05T12:05:28.276Z,29.13
2022-12-05T12:08:30.319Z,24.90
2022-12-05T12:11:40.678Z,25.07
2022-12-05T12:14:08.028Z,24.90
2022-12-05T12:17:09.943Z,26.47
2022-12-05T12:19:58.681Z,25.77
2022-12-05T12:22:35.265Z,29.37
2022-12-05T12:25:35.117Z,24.23
2022-12-05T12:28:46.939Z,27.13
2022-12-05T12:31:43.629Z,21.93
2022-12-05T12:34:36.075Z,20.80
2022-12-05T12:37:19.570Z,23.80
2022-12-05T12:39:55.454Z,22.10
2022-12-05T12:42:38.355Z,23.93
2022-12-05T12:45:17.982Z,23.33
2022-12-05T12:48:06.367Z,21.00
2022-12-05T12:50:45.045Z,23.23
2022-12-05T12:53:45.719Z,24.30
2022-12-05T12:56:16.095Z,24.20
2022-12-05T12:59:05.816Z,25.10
2022-12-05T13:01:33.282Z,24.53
2022-12-05T13:04:06.557Z,24.20
2022-12-05T13:06:45.353Z,25.10
2022-12-05T13:09:26.345Z,23.40
2022-12-05T13:11:56.094Z,27.20
2022-12-05T13:14:27.413Z,22.67
2022-12-05T13:16:57.246Z,27.50
2022-12-05T13:19:51.684Z,26.37
2022-12-05T13:22:22.985Z,25.70
2022-12-05T13:24:51.553Z,25.07
2022-12-05T13:27:21.850Z,27.13
2022-12-05T13:30:06.033Z,28.67
2022-12-05T13:32:41.181Z,28.60
2022-12-05T13:35:51.593Z,27.47
2022-12-05T13:38:48.599Z,29.93
2022-12-05T13:41:35.495Z,27.00
2022-12-05T13:44:12.355Z,30.33
2022-12-05T13:46:42.460Z,27.70
2022-12-05T13:49:29.730Z,27.23
2022-12-05T13:52:10.739Z,24.43
2022-12-05T13:54:45.057Z,26.70
2022-12-05T13:57:45.557Z,24.30
2022-12-05T14:00:15.055Z,25.97
2022-12-05T14:02:46.625Z,27.47
2022-12-05T14:05:14.115Z,28.27
2022-12-05T14:07:51.193Z,28.00
2022-12-05T14:10:23.073Z,27.00
2022-12-05T14:13:02.445Z,26.50
2022-12-05T14:15:43.318Z,26.17
2022-12-05T14:18:18.452Z,26.93
2022-12-05T14:20:56.747Z,27.07
2022-12-05T14:23:47.520Z,25.70
2022-12-05T14:26:58.348Z,27.93
2022-12-05T14:29:35.079Z,23.43
2022-12-05T14:32:42.403Z,24.30
2022-12-05T14:35:18.249Z,24.27
2022-12-05T14:37:53.356Z,25.57
2022-12-05T14:40:40.220Z,23.40
2022-12-05T14:43:32.275Z,18.67
2022-12-05T14:46:01.549Z,16.90
2022-12-05T14:48:43.877Z,16.97
2022-12-05T14:51:36.346Z,14.57
2022-12-05T14:54:12.650Z,13.87
2022-12-05T14:56:52.790Z,13.73
2022-12-05T14:59:26.171Z,13.00
2022-12-05T15:02:03.287Z,13.60
2022-12-05T15:05:03.794Z,13.97
2022-12-05T15:07:37.857Z,17.40
2022-12-05T15:10:20.134Z,19.07
2022-12-05T15:13:04.973Z,16.67
2022-12-05T15:15:45.508Z,17.17
2022-12-05T15:18:21.463Z,15.57
2022-12-05T15:21:09.056Z,16.50
2022-12-05T15:23:48.092Z,15.53
2022-12-05T15:26:46.282Z,20.20
2022-12-05T15:29:47.769Z,19.40
2022-12-05T15:32:22.616Z,21.57
2022-12-05T15:35:03.533Z,20.37
2022-12-05T15:37:54.423Z,22.43
2022-12-05T15:40:23.573Z,21.77
2022-12-05T15:42:58.350Z,21.20
2022-12-05T15:45:28.324Z,19.43
2022-12-05T15:48:08.411Z,23.57
2022-12-05T15:50:53.171Z,22.60
2022-12-05T15:53:35.555Z,21.43
2022-12-05T15:56:28.295Z,19.50
2022-12-05T15:59:18.591Z,15.87
2022-12-05T16:01:52.961Z,17.80
2022-12-05T16:04:24.861Z,19.87
2022-12-05T16:06:58.272Z,17.33
2022-12-05T16:09:31.354Z,18.60
2022-12-05T16:12:06.418Z,16.83
2022-12-05T16:14:59.136Z,19.57
2022-12-05T16:17:26.409Z,18.53
2022-12-05T16:19:53.933Z,14.93
2022-12-05T16:22:28.669Z,18.23
2022-12-05T16:25:01.660Z,17.77
2022-12-05T16:27:36.882Z,14.57
2022-12-05T16:30:20.286Z,15.70
2022-12-05T16:33:01.441Z,14.80
2022-12-05T16:35:47.839Z,14.60
2022-12-05T16:38:33.249Z,13.67
2022-12-05T16:41:03.042Z,12.93
2022-12-05T16:43:33.362Z,14.17
2022-12-05T16:46:13.458Z,15.17
2022-12-05T16:49:04.478Z,16.87
2022-12-05T16:51:42.201Z,17.23
2022-12-05T16:54:12.842Z,15.50
2022-12-05T16:56:42.869Z,17.17
2022-12-05T16:59:19.992Z,15.00
2022-12-05T17:01:48.122Z,15.57
2022-12-05T17:04:18.112Z,15.93
2022-12-05T17:06:45.985Z,17.10
2022-12-05T17:09:14.438Z,15.57
2022-12-05T17:11:45.929Z,15.80
2022-12-05T17:14:15.131Z,15.90
2022-12-05T17:16:43.035Z,19.23
2022-12-05T17:19:12.793Z,22.07
2022-12-05T17:21:46.666Z,22.30
2022-12-05T17:24:18.947Z,28.40
2022-12-05T17:26:47.920Z,25.50
2022-12-05T17:29:17.783Z,23.27
2022-12-05T17:31:49.142Z,28.77
2022-12-05T17:34:18.855Z,29.20
2022-12-05T17:36:49.314Z,26.03
2022-12-05T17:39:22.341Z,21.30
2022-12-05T17:41:55.077Z,19.50
2022-12-05T17:44:23.928Z,19.30
2022-12-05T17:46:53.674Z,18.37
2022-12-05T17:49:26.798Z,15.67
2022-12-05T17:54:51.285Z,14.43
2022-12-05T17:57:20.269Z,15.60
2022-12-05T17:59:48.420Z,14.13
2022-12-05T18:02:28.343Z,15.37
2022-12-05T18:05:01.260Z,14.60
2022-12-05T18:07:30.430Z,13.77
2022-12-05T18:09:59.943Z,13.77
2022-12-05T18:12:29.890Z,13.97
2022-12-05T18:17:41.674Z,14.40
2022-12-05T18:20:14.421Z,13.87
2022-12-05T18:22:43.878Z,13.73
2022-12-05T18:25:12.840Z,14.23
2022-12-05T18:27:49.479Z,14.60
2022-12-05T18:30:24.302Z,16.33
2022-12-05T18:32:56.702Z,18.83
2022-12-05T18:35:46.306Z,19.30
2022-12-05T18:38:14.660Z,17.87
2022-12-05T18:40:45.589Z,15.93
2022-12-05T18:43:17.549Z,17.43
2022-12-05T18:45:56.730Z,15.97
2022-12-05T18:48:43.692Z,18.70
2022-12-05T18:51:21.020Z,16.63
2022-12-05T18:53:59.168Z,19.57
2022-12-05T18:56:57.793Z,20.03
2022-12-05T18:59:34.438Z,21.47
2022-12-05T19:02:19.088Z,21.23
2022-12-05T19:04:50.010Z,18.53
2022-12-05T19:10:07.230Z,19.60
2022-12-05T19:15:39.719Z,19.13
2022-12-05T19:18:23.734Z,18.10
2022-12-05T19:23:36.998Z,18.77
2022-12-05T19:26:21.414Z,18.70
2022-12-05T19:29:05.952Z,19.27
2022-12-05T19:31:38.947Z,22.80
2022-12-05T19:34:14.708Z,19.30
2022-12-05T19:39:36.626Z,21.27
2022-12-05T19:42:09.971Z,18.77
2022-12-05T19:44:44.075Z,20.73
2022-12-05T19:47:22.523Z,18.57
2022-12-05T19:49:56.784Z,18.17
2022-12-05T19:52:31.752Z,17.23
2022-12-05T19:57:47.081Z,17.87
2022-12-05T20:00:27.361Z,16.47
2022-12-05T20:03:02.309Z,16.43
2022-12-05T20:05:52.515Z,19.73
2022-12-05T20:08:33.850Z,16.90
2022-12-05T20:11:34.337Z,16.23
2022-12-05T20:14:17.779Z,18.73
2022-12-05T20:19:44.069Z,17.37
2022-12-05T20:22:23.729Z,17.37
2022-12-05T20:25:07.908Z,16.20
2022-12-05T20:30:27.394Z,21.30
2022-12-05T20:32:56.313Z,21.63
2022-12-05T20:35:25.176Z,20.83
2022-12-05T20:38:03.643Z,18.33
2022-12-05T20:40:35.022Z,19.50
2022-12-05T20:43:07.175Z,19.27
2022-12-05T20:45:40.808Z,17.83
2022-12-05T20:50:55.140Z,14.97
2022-12-05T20:53:28.482Z,15.20
2022-12-05T20:56:15.924Z,14.13
2022-12-05T20:58:50.709Z,16.20
2022-12-05T21:01:22.810Z,17.63
2022-12-05T21:03:57.145Z,18.00
2022-12-05T21:06:31.860Z,18.53
2022-12-05T21:09:04.315Z,17.70
2022-12-05T21:11:38.661Z,18.20
2022-12-05T21:14:07.916Z,19.03
2022-12-05T21:16:37.355Z,19.10
2022-12-05T21:19:08.846Z,18.17
2022-12-05T21:21:41.597Z,19.73
2022-12-05T21:24:12.579Z,17.37
2022-12-05T21:26:41.993Z,19.23
2022-12-05T21:29:12.024Z,19.67
2022-12-05T21:31:42.527Z,21.43
2022-12-05T21:34:20.321Z,20.73
2022-12-05T21:36:50.285Z,19.00
2022-12-05T21:39:17.873Z,18.90
2022-12-05T21:41:47.613Z,19.93
2022-12-05T21:44:20.087Z,21.00
2022-12-05T21:46:51.085Z,19.40
2022-12-05T21:49:21.466Z,21.10
2022-12-05T21:51:52.328Z,21.77
2022-12-05T21:54:25.529Z,20.87
2022-12-05T21:56:58.753Z,18.90
2022-12-05T21:59:34.332Z,15.33
2022-12-05T22:07:34.112Z,18.93
2022-12-05T22:10:10.578Z,16.97
2022-12-05T22:15:22.093Z,20.70
2022-12-05T22:17:58.791Z,18.27
2022-12-05T22:20:28.296Z,18.33
2022-12-05T22:22:55.850Z,17.87
2022-12-05T22:25:26.768Z,17.60
2022-12-05T22:28:00.273Z,16.73
2022-12-05T22:30:32.061Z,19.23
2022-12-05T22:35:52.213Z,18.10
2022-12-05T22:38:20.882Z,18.43
2022-12-05T22:41:01.781Z,18.57
2022-12-05T22:43:38.867Z,15.27
2022-12-05T22:46:14.388Z,15.30
2022-12-05T22:48:47.949Z,12.47
2022-12-05T22:51:27.321Z,11.33
2022-12-05T22:53:58.101Z,9.83
2022-12-05T22:56:27.977Z,9.13
2022-12-05T22:59:10.312Z,9.90
2022-12-05T23:01:46.522Z,9.07
2022-12-05T23:04:17.829Z,9.57
2022-12-05T23:06:50.276Z,8.07
2022-12-05T23:09:21.011Z,7.23
2022-12-05T23:11:55.413Z,7.40
2022-12-05T23:14:25.271Z,8.10
2022-12-05T23:16:57.312Z,8.67
2022-12-05T23:19:28.647Z,8.70
2022-12-05T23:21:58.650Z,6.97
2022-12-05T23:24:31.196Z,7.63
2022-12-05T23:29:46.347Z,7.30
2022-12-05T23:32:17.581Z,6.47
2022-12-05T23:34:45.848Z,5.50
2022-12-05T23:37:21.087Z,5.87
2022-12-05T23:39:51.173Z,4.77
2022-12-05T23:42:18.845Z,4.60
2022-12-05T23:44:49.498Z,5.50
2022-12-05T23:47:17.184Z,6.00
2022-12-05T23:49:46.482Z,6.43
2022-12-05T23:52:14.070Z,6.00
2022-12-05T23:54:47.661Z,8.07
2022-12-05T23:57:26.356Z,7.27
